Time;durP1;ratioP1;P1;durP2;ratioP2;P2;SDS_P1;SDS_P2;PMS_P1;PMS_P2;Temp;Humidity;BMP_temperature;BMP_pressure;BME280_temperature;BME280_humidity;BME280_pressure;Samples;Min_cycle;Max_cycle;Signal;HPM_P1;HPM_P2
2023/01/04 00:00:05;;;;;;;10.93;2.78;;;;;;;8.38;100.00;101996.69;5221580;28;20017;-78
2023/01/04 00:02:35;;;;;;;6.00;2.47;;;;;;;8.37;100.00;101990.50;5215585;28;20032;-77
2023/01/04 00:05:06;;;;;;;5.97;2.05;;;;;;;8.38;100.00;102005.56;5205896;28;20432;-77
2023/01/04 00:07:36;;;;;;;12.30;2.50;;;;;;;8.40;100.00;101994.78;5205881;28;20064;-78
2023/01/04 00:10:07;;;;;;;9.75;2.20;;;;;;;8.39;100.00;101993.94;5212068;28;20017;-77
2023/01/04 00:12:37;;;;;;;10.85;2.78;;;;;;;8.44;100.00;101988.22;5211443;28;20052;-78
2023/01/04 00:15:08;;;;;;;10.40;2.70;;;;;;;8.40;100.00;102000.97;5207302;28;20031;-77
2023/01/04 00:17:39;;;;;;;8.60;2.00;;;;;;;8.41;100.00;101978.59;5230170;28;20024;-77
2023/01/04 00:20:09;;;;;;;8.35;2.47;;;;;;;8.46;100.00;101981.75;5223783;28;20017;-78
2023/01/04 00:22:40;;;;;;;6.50;2.35;;;;;;;8.50;100.00;101977.84;5235068;28;20048;-77
2023/01/04 00:25:10;;;;;;;7.53;1.83;;;;;;;8.51;100.00;101984.03;5228905;28;20021;-76
2023/01/04 00:27:41;;;;;;;4.70;2.20;;;;;;;8.56;100.00;101980.00;5213723;28;20090;-77
2023/01/04 00:30:12;;;;;;;2.35;1.40;;;;;;;8.61;100.00;101968.94;5227112;28;20665;-77
2023/01/04 00:32:43;;;;;;;7.55;1.60;;;;;;;8.63;100.00;101976.84;5220284;28;20401;-77
2023/01/04 00:35:13;;;;;;;6.35;1.80;;;;;;;8.66;100.00;101958.72;5204686;28;20029;-77
2023/01/04 00:37:43;;;;;;;6.97;2.28;;;;;;;8.70;100.00;101978.03;5225359;28;20063;-77
2023/01/04 00:40:14;;;;;;;6.60;1.88;;;;;;;8.71;100.00;101967.22;5224846;28;20108;-77
2023/01/04 00:42:44;;;;;;;5.78;1.48;;;;;;;8.72;100.00;101966.22;5206004;28;20549;-76
2023/01/04 00:45:15;;;;;;;3.00;1.40;;;;;;;8.79;100.00;101964.75;5220805;28;20088;-77
2023/01/04 00:47:45;;;;;;;6.25;1.52;;;;;;;8.79;100.00;101959.41;5217120;28;20104;-77
2023/01/04 00:50:16;;;;;;;4.55;1.35;;;;;;;8.83;100.00;101965.31;5217666;28;20108;-77
2023/01/04 00:52:48;;;;;;;6.10;1.20;;;;;;;8.84;100.00;101945.66;5206166;28;20025;-75
2023/01/04 00:55:19;;;;;;;4.10;1.40;;;;;;;8.87;100.00;101934.66;5211314;28;20055;-77
2023/01/04 00:57:49;;;;;;;3.92;1.10;;;;;;;8.91;100.00;101938.78;5214194;28;20060;-77
2023/01/04 01:00:20;;;;;;;4.05;1.30;;;;;;;8.91;100.00;101936.13;5218455;28;20037;-77
2023/01/04 01:02:50;;;;;;;7.28;1.58;;;;;;;8.93;100.00;101928.78;5217833;28;20077;-77
2023/01/04 01:05:20;;;;;;;1.92;1.20;;;;;;;8.96;100.00;101925.88;5203606;28;20050;-77
2023/01/04 01:07:51;;;;;;;6.68;1.27;;;;;;;9.00;100.00;101919.28;5207549;28;20091;-77
2023/01/04 01:10:22;;;;;;;2.83;1.20;;;;;;;9.00;100.00;101921.13;5225858;28;20013;-77
2023/01/04 01:12:53;;;;;;;2.88;1.27;;;;;;;9.01;100.00;101933.50;5224729;28;20029;-77
2023/01/04 01:15:23;;;;;;;3.70;1.27;;;;;;;8.98;100.00;101923.06;5217444;28;20025;-77
2023/01/04 01:17:53;;;;;;;1.77;1.15;;;;;;;9.00;100.00;101932.66;5208349;28;20036;-77
2023/01/04 01:20:24;;;;;;;5.15;1.40;;;;;;;9.02;100.00;101928.03;5215631;28;20469;-77
2023/01/04 01:22:54;;;;;;;1.70;1.00;;;;;;;9.03;100.00;101924.34;5226251;28;20473;-77
2023/01/04 01:25:25;;;;;;;2.33;1.13;;;;;;;8.99;100.00;101928.31;5225684;28;20029;-77
2023/01/04 01:27:55;;;;;;;4.57;0.90;;;;;;;9.01;100.00;101929.00;5211686;28;20626;-77
2023/01/04 01:30:26;;;;;;;2.88;1.00;;;;;;;9.03;100.00;101924.34;5224302;28;20029;-77
2023/01/04 01:32:56;;;;;;;3.50;1.02;;;;;;;9.03;100.00;101910.97;5206593;28;20044;-77
2023/01/04 01:35:26;;;;;;;2.42;1.13;;;;;;;9.00;100.00;101913.94;5224281;28;20457;-77
2023/01/04 01:37:57;;;;;;;2.65;1.20;;;;;;;9.07;100.00;101914.25;5225309;28;20035;-77
2023/01/04 01:40:28;;;;;;;8.90;1.00;;;;;;;9.07;100.00;101917.78;5219662;28;20094;-77
2023/01/04 01:42:58;;;;;;;3.20;0.95;;;;;;;9.06;100.00;101904.53;5214944;28;20017;-76
2023/01/04 01:45:32;;;;;;;1.90;0.82;;;;;;;9.10;100.00;101899.78;5206959;28;20029;-76
2023/01/04 01:48:10;;;;;;;3.70;1.13;;;;;;;9.15;100.00;101918.97;5204598;28;20484;-77
2023/01/04 01:50:48;;;;;;;2.42;1.10;;;;;;;9.22;100.00;101915.63;5223931;28;20078;-76
2023/01/04 01:53:20;;;;;;;5.45;1.17;;;;;;;9.21;100.00;101913.09;5223300;28;20022;-77
2023/01/04 01:55:51;;;;;;;3.28;1.05;;;;;;;9.22;100.00;101909.41;5215417;28;20031;-78
2023/01/04 01:58:27;;;;;;;4.82;0.93;;;;;;;9.19;100.00;101913.22;5221849;28;20052;-77
2023/01/04 02:00:58;;;;;;;2.10;1.10;;;;;;;9.21;100.00;101926.47;5211904;28;20036;-79
2023/01/04 02:03:33;;;;;;;6.15;1.20;;;;;;;9.21;100.00;101907.72;5222507;28;20108;-77
2023/01/04 02:06:07;;;;;;;4.25;1.27;;;;;;;9.24;100.00;101910.16;5225211;28;20020;-78
2023/01/04 02:08:40;;;;;;;2.50;1.10;;;;;;;9.26;100.00;101914.38;5216868;28;20088;-78
2023/01/04 02:11:11;;;;;;;3.30;1.30;;;;;;;9.26;100.00;101909.03;5217510;28;20031;-77
2023/01/04 02:16:46;;;;;;;5.43;1.40;;;;;;;9.34;100.00;101901.19;5211113;28;20684;-76
2023/01/04 02:19:39;;;;;;;3.42;1.25;;;;;;;9.40;100.00;101913.19;5223192;28;20040;-77
2023/01/04 02:22:22;;;;;;;6.93;1.30;;;;;;;9.44;100.00;101911.97;5204774;28;20087;-76
2023/01/04 02:25:11;;;;;;;2.25;1.10;;;;;;;9.47;100.00;101905.47;5212564;28;20428;-76
2023/01/04 02:28:01;;;;;;;2.22;1.50;;;;;;;9.47;100.00;101894.75;5225047;28;20037;-77
2023/01/04 02:30:43;;;;;;;4.60;1.27;;;;;;;9.48;100.00;101905.31;5223374;28;20017;-77
2023/01/04 02:33:31;;;;;;;1.98;1.35;;;;;;;9.52;100.00;101898.72;5203315;28;20064;-77
2023/01/04 02:36:17;;;;;;;3.78;1.67;;;;;;;9.56;100.00;101897.47;5216635;28;20037;-77
2023/01/04 02:39:29;;;;;;;2.45;1.58;;;;;;;9.53;100.00;101887.03;5216551;28;20037;-76
2023/01/04 02:42:11;;;;;;;3.38;1.40;;;;;;;9.58;100.00;101886.63;5197758;28;20124;-77
2023/01/04 02:44:52;;;;;;;2.97;1.48;;;;;;;9.63;100.00;101892.44;5216284;28;20071;-77
2023/01/04 02:50:32;;;;;;;3.83;2.00;;;;;;;9.69;100.00;101883.88;5225727;28;20052;-77
2023/01/04 02:53:16;;;;;;;4.07;1.95;;;;;;;9.75;100.00;101871.75;5225389;28;20029;-77
2023/01/04 02:56:15;;;;;;;5.68;1.63;;;;;;;9.73;100.00;101863.84;5205061;28;20030;-77
2023/01/04 02:58:51;;;;;;;6.57;1.70;;;;;;;9.79;100.00;101866.00;5216999;28;20025;-77
2023/01/04 03:08:00;;;;;;;4.50;2.10;;;;;;;9.80;100.00;101869.53;5222866;28;20075;-78
2023/01/04 03:10:53;;;;;;;6.32;2.22;;;;;;;9.85;100.00;101860.09;5207987;28;20049;-76
2023/01/04 03:13:27;;;;;;;8.98;2.15;;;;;;;9.87;100.00;101854.56;5209584;28;20033;-76
2023/01/04 03:16:10;;;;;;;6.18;2.53;;;;;;;9.89;100.00;101849.06;5217355;28;20104;-77
2023/01/04 03:18:45;;;;;;;8.90;2.70;;;;;;;9.92;100.00;101851.47;5229609;28;20025;-77
2023/01/04 03:21:18;;;;;;;8.00;2.40;;;;;;;9.94;100.00;101854.88;5216730;28;20043;-78
2023/01/04 03:35:50;;;;;;;5.03;1.88;;;;;;;10.06;100.00;101830.50;5209140;28;20024;-77
2023/01/04 03:51:04;;;;;;;7.43;1.83;;;;;;;10.29;100.00;101819.53;5183255;28;20494;-76
2023/01/04 03:53:56;;;;;;;5.65;2.10;;;;;;;10.29;100.00;101798.94;5207620;28;20044;-77
2023/01/04 03:56:28;;;;;;;3.95;1.80;;;;;;;10.31;100.00;101812.19;5221393;28;20048;-77
2023/01/04 03:58:59;;;;;;;6.85;1.80;;;;;;;10.37;100.00;101799.06;5218947;28;20022;-77
2023/01/04 04:01:30;;;;;;;6.90;1.83;;;;;;;10.41;100.00;101805.00;5206034;28;20045;-77
2023/01/04 04:09:39;;;;;;;4.20;1.30;;;;;;;10.43;100.00;101791.44;5209374;28;20029;-77
2023/01/04 04:12:10;;;;;;;6.57;2.08;;;;;;;10.41;100.00;101783.53;5226232;28;20040;-78
2023/01/04 04:14:40;;;;;;;6.70;1.58;;;;;;;10.45;100.00;101784.94;5223133;28;20100;-77
2023/01/04 04:17:11;;;;;;;2.67;1.63;;;;;;;10.47;100.00;101785.66;5223360;28;20488;-77
2023/01/04 04:19:41;;;;;;;5.15;1.73;;;;;;;10.53;100.00;101762.75;5209140;28;20036;-77
2023/01/04 04:22:12;;;;;;;2.25;1.33;;;;;;;10.56;100.00;101762.47;5217179;28;20405;-77
2023/01/04 04:24:42;;;;;;;4.38;1.50;;;;;;;10.61;100.00;101774.47;5220305;28;20496;-77
2023/01/04 04:27:12;;;;;;;4.13;1.52;;;;;;;10.70;100.00;101756.66;5204573;28;20030;-76
2023/01/04 04:29:43;;;;;;;4.05;1.35;;;;;;;10.70;100.00;101748.63;5205037;28;20019;-77
2023/01/04 04:32:13;;;;;;;5.43;1.63;;;;;;;10.69;100.00;101744.22;5219160;28;20413;-77
2023/01/04 04:34:44;;;;;;;7.75;1.55;;;;;;;10.73;100.00;101760.88;5221556;28;20127;-77
2023/01/04 04:37:15;;;;;;;6.20;1.30;;;;;;;10.73;100.00;101744.78;5212638;28;20556;-77
2023/01/04 04:39:45;;;;;;;2.60;1.10;;;;;;;10.74;100.00;101751.84;5222639;28;20070;-77
2023/01/04 04:42:15;;;;;;;6.95;1.50;;;;;;;10.77;100.00;101738.13;5209803;28;20021;-77
2023/01/04 04:44:46;;;;;;;5.65;1.52;;;;;;;10.79;100.00;101741.50;5205097;28;20025;-77
2023/01/04 04:47:16;;;;;;;6.45;1.33;;;;;;;10.80;100.00;101725.28;5225142;28;20024;-76
2023/01/04 04:49:47;;;;;;;2.55;1.38;;;;;;;10.86;100.00;101734.59;5225620;28;20465;-76
2023/01/04 04:52:17;;;;;;;3.97;1.17;;;;;;;10.92;100.00;101717.03;5225656;28;20053;-75
2023/01/04 04:54:48;;;;;;;18.10;2.47;;;;;;;10.92;100.00;101723.25;5211154;28;20104;-76
2023/01/04 04:57:18;;;;;;;3.38;1.00;;;;;;;10.92;100.00;101728.63;5226438;28;20084;-76
2023/01/04 04:59:49;;;;;;;3.97;1.10;;;;;;;10.93;100.00;101729.47;5210379;28;20064;-76
2023/01/04 05:02:19;;;;;;;3.20;0.85;;;;;;;10.98;100.00;101725.34;5213455;28;20471;-76
2023/01/04 05:04:50;;;;;;;5.45;1.42;;;;;;;11.03;100.00;101736.47;5224356;28;20370;-76
2023/01/04 05:07:20;;;;;;;5.25;1.50;;;;;;;11.01;100.00;101708.09;5225985;28;20076;-76
2023/01/04 05:09:51;;;;;;;2.60;0.98;;;;;;;11.01;100.00;101714.31;5212977;28;20021;-75
2023/01/04 05:15:10;;;;;;;6.40;1.55;;;;;;;11.08;100.00;101712.72;5212530;28;20021;-76
2023/01/04 05:17:41;;;;;;;5.20;1.30;;;;;;;11.11;100.00;101711.59;5207559;28;20033;-76
2023/01/04 05:20:11;;;;;;;2.00;0.80;;;;;;;11.12;100.00;101705.22;5214973;28;20098;-76
2023/01/04 05:22:42;;;;;;;2.92;1.40;;;;;;;11.18;100.00;101690.34;5208399;28;20017;-76
2023/01/04 05:25:13;;;;;;;4.53;1.40;;;;;;;11.23;100.00;101688.91;5214346;28;20474;-76
2023/01/04 05:27:43;;;;;;;6.47;1.50;;;;;;;11.20;100.00;101696.44;5208345;28;20032;-76
2023/01/04 05:33:06;;;;;;;4.30;0.95;;;;;;;11.21;100.00;101714.22;5213745;28;20103;-76
2023/01/04 05:35:37;;;;;;;2.03;0.90;;;;;;;11.29;100.00;101698.19;5206917;28;20604;-76
2023/01/04 05:38:07;;;;;;;7.15;1.15;;;;;;;11.31;100.00;101701.59;5215623;28;20029;-76
2023/01/04 05:40:38;;;;;;;1.15;0.70;;;;;;;11.31;100.00;101707.81;5223943;28;20021;-77
2023/01/04 05:43:09;;;;;;;1.80;1.20;;;;;;;11.25;100.00;101715.63;5217354;28;20021;-76
2023/01/04 05:45:41;;;;;;;5.85;1.02;;;;;;;11.19;100.00;101706.28;5206089;28;20056;-76
2023/01/04 05:48:12;;;;;;;1.60;1.00;;;;;;;11.12;100.00;101689.09;5217384;28;20020;-76
2023/01/04 05:50:44;;;;;;;3.90;1.60;;;;;;;11.00;100.00;101695.69;5216244;28;20428;-76
2023/01/04 05:53:17;;;;;;;3.15;1.00;;;;;;;11.02;100.00;101683.78;5202981;28;20163;-75
2023/01/04 05:55:48;;;;;;;4.47;1.27;;;;;;;11.03;100.00;101693.53;5203462;28;20030;-77
2023/01/04 05:58:18;;;;;;;3.60;1.00;;;;;;;11.08;100.00;101693.91;5204413;28;20035;-76
2023/01/04 06:00:49;;;;;;;3.58;0.60;;;;;;;11.15;100.00;101691.50;5215081;28;20021;-76
2023/01/04 06:03:19;;;;;;;1.95;0.70;;;;;;;11.19;100.00;101686.66;5206508;28;20105;-75
2023/01/04 06:05:50;;;;;;;3.20;1.00;;;;;;;11.23;100.00;101688.06;5204290;28;20075;-76
2023/01/04 06:08:21;;;;;;;1.50;0.68;;;;;;;11.31;100.00;101698.91;5224357;28;20047;-76
2023/01/04 06:10:53;;;;;;;3.17;0.70;;;;;;;11.38;100.00;101694.59;5210605;28;20030;-76
2023/01/04 06:13:23;;;;;;;2.17;0.70;;;;;;;11.46;100.00;101686.66;5223623;28;20032;-75
2023/01/04 06:15:54;;;;;;;2.03;0.70;;;;;;;11.47;100.00;101695.56;5214519;28;20025;-75
2023/01/04 06:18:24;;;;;;;3.60;0.75;;;;;;;11.51;100.00;101680.81;5203024;28;20488;-75
2023/01/04 06:20:55;;;;;;;1.55;0.60;;;;;;;11.51;100.00;101680.81;5205234;28;20094;-76
2023/01/04 06:23:25;;;;;;;3.75;0.93;;;;;;;11.54;100.00;101684.03;5214963;28;20021;-77
2023/01/04 06:25:56;;;;;;;3.65;0.70;;;;;;;11.58;100.00;101696.16;5204131;28;20052;-75
2023/01/04 06:28:27;;;;;;;1.63;1.00;;;;;;;11.58;100.00;101693.47;5215342;28;20035;-76
2023/01/04 06:31:06;;;;;;;2.50;0.95;;;;;;;11.60;100.00;101693.34;5205686;28;20048;-74
2023/01/04 06:33:37;;;;;;;2.70;0.60;;;;;;;11.65;100.00;101705.34;5220213;28;20056;-76
2023/01/04 06:36:07;;;;;;;3.78;0.77;;;;;;;11.63;100.00;101712.69;5228909;28;20033;-75
2023/01/04 06:38:38;;;;;;;2.28;0.70;;;;;;;11.59;100.00;101695.16;5226941;28;20402;-74
2023/01/04 06:41:08;;;;;;;1.08;0.50;;;;;;;11.56;100.00;101700.03;5220137;28;20116;-76
2023/01/04 06:43:39;;;;;;;2.15;0.60;;;;;;;11.56;100.00;101708.09;5207870;28;20512;-75
2023/01/04 06:46:10;;;;;;;2.08;0.75;;;;;;;11.50;100.00;101706.84;5218219;28;20033;-75
2023/01/04 06:48:40;;;;;;;4.25;1.05;;;;;;;11.47;100.00;101696.41;5228438;28;20029;-76
2023/01/04 06:51:11;;;;;;;4.38;0.60;;;;;;;11.47;100.00;101682.97;5215230;28;20374;-75
2023/01/04 06:53:42;;;;;;;2.42;0.73;;;;;;;11.48;100.00;101698.06;5220182;28;20104;-76
2023/01/04 06:56:12;;;;;;;0.70;0.55;;;;;;;11.44;100.00;101695.84;5207924;28;20017;-75
2023/01/04 06:58:43;;;;;;;1.40;0.73;;;;;;;11.45;100.00;101695.72;5227568;28;20527;-75
2023/01/04 07:01:13;;;;;;;3.60;0.73;;;;;;;11.45;100.00;101681.44;5227846;28;20094;-75
2023/01/04 07:03:44;;;;;;;3.25;0.88;;;;;;;11.46;100.00;101673.22;5220467;28;20029;-75
2023/01/04 07:06:14;;;;;;;3.90;0.73;;;;;;;11.45;100.00;101671.53;5220808;28;20021;-76
2023/01/04 07:08:45;;;;;;;5.45;0.80;;;;;;;11.45;100.00;101676.06;5208172;28;20108;-75
2023/01/04 07:11:15;;;;;;;1.65;0.85;;;;;;;11.47;100.00;101660.63;5209927;28;20100;-75
2023/01/04 07:13:46;;;;;;;4.68;0.80;;;;;;;11.49;100.00;101672.03;5227064;28;20082;-76
2023/01/04 07:16:16;;;;;;;3.88;0.73;;;;;;;11.53;100.00;101673.44;5220439;28;20630;-76
2023/01/04 07:18:47;;;;;;;4.82;0.90;;;;;;;11.55;100.00;101677.69;5217220;28;20794;-76
2023/01/04 07:21:17;;;;;;;7.55;1.00;;;;;;;11.55;100.00;101675.00;5205590;28;20135;-76
2023/01/04 07:23:47;;;;;;;3.00;0.80;;;;;;;11.61;100.00;101671.69;5206219;28;20078;-76
2023/01/04 07:26:18;;;;;;;1.83;0.80;;;;;;;11.63;100.00;101677.75;5219621;28;20247;-76
2023/01/04 07:31:37;;;;;;;3.75;1.25;;;;;;;11.66;100.00;101666.69;5207162;28;20076;-76
2023/01/04 07:34:08;;;;;;;2.97;0.60;;;;;;;11.67;100.00;101672.91;5213828;28;20437;-76
2023/01/04 07:36:39;;;;;;;4.30;1.25;;;;;;;11.70;100.00;101661.88;5205503;28;20029;-76
2023/01/04 07:39:11;;;;;;;4.97;1.65;;;;;;;11.68;100.00;101662.00;5219696;28;20041;-76
2023/01/04 07:41:42;;;;;;;2.92;0.90;;;;;;;11.72;100.00;101659.00;5219410;28;20025;-76
2023/01/04 07:44:13;;;;;;;4.43;1.02;;;;;;;11.70;100.00;101637.69;5218484;28;20041;-76
2023/01/04 07:46:44;;;;;;;1.77;0.70;;;;;;;11.74;100.00;101644.41;5220020;28;20045;-76
2023/01/04 07:49:17;;;;;;;4.85;0.85;;;;;;;11.78;100.00;101647.63;5205748;28;20392;-76
2023/01/04 07:51:48;;;;;;;5.57;1.02;;;;;;;11.76;100.00;101634.38;5208708;28;20435;-77
2023/01/04 07:54:19;;;;;;;4.93;1.00;;;;;;;11.78;100.00;101624.28;5217373;28;20395;-76
2023/01/04 07:56:50;;;;;;;4.13;1.38;;;;;;;11.77;100.00;101619.06;5219889;28;20040;-76
2023/01/04 07:59:20;;;;;;;4.63;1.05;;;;;;;11.79;100.00;101631.34;5218082;28;20029;-77
2023/01/04 08:01:51;;;;;;;4.38;1.20;;;;;;;11.81;100.00;101633.91;5207644;28;20068;-76
2023/01/04 08:04:22;;;;;;;6.47;1.00;;;;;;;11.84;100.00;101658.63;5219011;28;20025;-76
2023/01/04 08:06:53;;;;;;;2.85;0.80;;;;;;;11.88;100.00;101633.13;5207138;28;20033;-77
2023/01/04 08:09:23;;;;;;;2.65;0.57;;;;;;;11.91;100.00;101632.84;5219087;28;20020;-75
2023/01/04 08:11:54;;;;;;;2.03;0.70;;;;;;;11.91;100.00;101630.16;5219347;28;20029;-76
2023/01/04 08:14:25;;;;;;;5.15;1.70;;;;;;;11.91;100.00;101651.66;5219358;28;20025;-76
2023/01/04 08:16:55;;;;;;;3.72;1.13;;;;;;;11.95;100.00;101644.13;5210415;28;20435;-76
2023/01/04 08:19:26;;;;;;;5.55;1.25;;;;;;;11.95;100.00;101637.88;5221632;28;20033;-76
2023/01/04 08:21:56;;;;;;;5.78;1.15;;;;;;;11.92;100.00;101658.72;5216855;28;20504;-76
2023/01/04 08:24:27;;;;;;;11.52;4.65;;;;;;;11.92;100.00;101647.97;5223000;28;20025;-76
2023/01/04 08:26:58;;;;;;;5.90;1.20;;;;;;;11.92;100.00;101652.50;5215502;28;20026;-76
2023/01/04 08:29:28;;;;;;;7.85;2.30;;;;;;;12.03;100.00;101662.16;5205651;28;20378;-76
2023/01/04 08:31:59;;;;;;;2.10;1.20;;;;;;;12.01;100.00;101670.41;5205580;28;20031;-76
2023/01/04 08:34:30;;;;;;;3.08;1.20;;;;;;;11.99;100.00;101668.84;5217565;28;20112;-76
2023/01/04 08:37:01;;;;;;;5.72;2.67;;;;;;;11.98;100.00;101665.31;5207494;28;20079;-76
2023/01/04 08:39:34;;;;;;;4.22;1.02;;;;;;;11.97;100.00;101660.09;5227734;28;20457;-76
2023/01/04 08:42:05;;;;;;;5.43;1.10;;;;;;;11.95;100.00;101668.34;5226204;28;20025;-76
2023/01/04 08:44:35;;;;;;;6.65;1.20;;;;;;;11.92;100.00;101679.38;5205702;28;20082;-74
2023/01/04 08:47:06;;;;;;;3.72;1.30;;;;;;;11.97;100.00;101670.88;5210014;28;20021;-77
2023/01/04 08:49:36;;;;;;;3.63;1.10;;;;;;;11.91;100.00;101688.47;5225666;28;20401;-76
2023/01/04 08:52:08;;;;;;;4.88;1.27;;;;;;;11.88;100.00;101672.63;5210534;28;20543;-76
2023/01/04 08:54:38;;;;;;;2.05;1.13;;;;;;;11.81;100.00;101663.47;5212473;28;20445;-77
2023/01/04 08:57:08;;;;;;;5.72;1.38;;;;;;;11.80;100.00;101668.00;5224313;28;20124;-76
2023/01/04 08:59:39;;;;;;;2.67;1.27;;;;;;;11.91;100.00;101669.66;5212500;28;20037;-77
2023/01/04 09:02:18;;;;;;;8.43;1.20;;;;;;;11.91;100.00;101662.41;5217097;28;20036;-76
2023/01/04 09:04:49;;;;;;;2.92;0.93;;;;;;;11.96;100.00;101667.34;5218130;28;20033;-76
2023/01/04 09:07:20;;;;;;;3.20;1.35;;;;;;;11.96;100.00;101661.13;5214633;28;20079;-77
2023/01/04 09:09:50;;;;;;;4.47;1.10;;;;;;;11.97;100.00;101671.69;5219926;28;20025;-76
2023/01/04 09:12:21;;;;;;;4.85;1.10;;;;;;;11.98;100.00;101678.75;5204667;28;20125;-77
2023/01/04 09:14:51;;;;;;;1.98;0.90;;;;;;;11.98;100.00;101668.00;5210710;28;20025;-76
2023/01/04 09:17:23;;;;;;;3.80;1.15;;;;;;;12.03;100.00;101670.25;5204440;28;20028;-77
2023/01/04 09:19:53;;;;;;;3.67;0.90;;;;;;;12.06;100.00;101669.94;5210246;28;20021;-76
2023/01/04 09:22:24;;;;;;;4.03;1.35;;;;;;;12.12;100.00;101672.00;5225590;28;20021;-77
2023/01/04 09:24:54;;;;;;;4.32;1.10;;;;;;;12.11;100.00;101671.16;5224317;28;20033;-77
2023/01/04 09:27:25;;;;;;;8.05;1.15;;;;;;;12.12;100.00;101672.84;5208889;28;20025;-77
2023/01/04 09:29:55;;;;;;;6.30;1.13;;;;;;;12.15;100.00;101664.47;5202796;28;20099;-77
2023/01/04 09:32:26;;;;;;;6.57;1.20;;;;;;;12.12;100.00;101658.53;5203438;28;20086;-76
2023/01/04 09:34:56;;;;;;;5.60;2.10;;;;;;;12.22;100.00;101664.66;5215032;28;20025;-77
2023/01/04 09:37:27;;;;;;;10.15;1.25;;;;;;;12.23;100.00;101666.34;5206341;28;20025;-76
2023/01/04 09:39:58;;;;;;;4.72;1.00;;;;;;;12.26;100.00;101654.44;5214959;28;20395;-77
2023/01/04 09:42:33;;;;;;;17.27;1.95;;;;;;;12.28;100.00;101658.66;5224463;28;20191;-77
2023/01/04 09:45:19;;;;;;;5.80;1.02;;;;;;;12.31;100.00;101652.13;5211914;28;20033;-76
2023/01/04 09:48:10;;;;;;;5.25;1.17;;;;;;;12.26;100.00;101662.53;5225250;28;20088;-77
2023/01/04 09:50:52;;;;;;;5.00;1.00;;;;;;;12.28;100.00;101669.41;5211045;28;20040;-77
2023/01/04 09:53:39;;;;;;;3.15;1.05;;;;;;;12.25;100.00;101658.13;5210464;28;20029;-76
2023/01/04 09:56:19;;;;;;;6.40;1.30;;;;;;;12.28;100.00;101682.88;5212475;28;20165;-76
2023/01/04 09:58:51;;;;;;;6.30;1.10;;;;;;;12.34;100.00;101659.88;5204414;28;20040;-77
2023/01/04 10:01:41;;;;;;;5.78;1.08;;;;;;;12.32;100.00;101673.50;5205654;28;20367;-76
2023/01/04 10:04:15;;;;;;;3.20;0.95;;;;;;;12.33;100.00;101650.13;5213418;28;20030;-76
2023/01/04 10:06:45;;;;;;;1.55;0.63;;;;;;;12.37;100.00;101668.47;5212627;28;20381;-76
2023/01/04 10:09:16;;;;;;;3.50;1.40;;;;;;;12.32;100.00;101664.56;5215639;28;20029;-77
2023/01/04 10:12:05;;;;;;;2.17;0.68;;;;;;;12.30;100.00;101667.44;5228453;28;20481;-76
2023/01/04 10:14:41;;;;;;;4.20;0.90;;;;;;;12.27;100.00;101664.22;5227118;28;20056;-77
2023/01/04 10:17:25;;;;;;;2.78;0.77;;;;;;;12.24;100.00;101654.59;5221972;28;20036;-76
2023/01/04 10:20:18;;;;;;;2.65;0.65;;;;;;;12.19;100.00;101659.59;5228566;28;20117;-77
2023/01/04 10:23:09;;;;;;;5.82;1.10;;;;;;;12.24;100.00;101659.13;5207412;28;20094;-77
2023/01/04 10:25:53;;;;;;;2.55;0.70;;;;;;;12.16;100.00;101668.00;5227654;28;20025;-76
2023/01/04 10:28:39;;;;;;;3.33;1.17;;;;;;;12.17;100.00;101662.44;5208347;28;20444;-76
2023/01/04 10:31:21;;;;;;;3.20;0.70;;;;;;;12.24;100.00;101668.03;5213475;28;20457;-76
2023/01/04 10:34:05;;;;;;;3.28;0.80;;;;;;;12.14;100.00;101661.91;5220397;28;20037;-77
2023/01/04 10:36:36;;;;;;;6.43;1.23;;;;;;;12.07;100.00;101661.69;5228303;28;20029;-77
2023/01/04 10:39:16;;;;;;;3.20;0.70;;;;;;;12.12;100.00;101655.84;5221560;28;20513;-75
2023/01/04 10:41:54;;;;;;;1.92;1.05;;;;;;;12.11;100.00;101651.47;5225271;28;20017;-76
2023/01/04 10:44:35;;;;;;;2.38;0.77;;;;;;;12.07;100.00;101661.69;5207836;28;20026;-76
2023/01/04 10:47:33;;;;;;;8.98;1.25;;;;;;;12.09;100.00;101658.84;5219831;28;20436;-78
2023/01/04 10:50:30;;;;;;;2.63;0.95;;;;;;;12.10;100.00;101649.81;5222497;28;20052;-77
2023/01/04 10:53:11;;;;;;;6.18;1.08;;;;;;;12.05;100.00;101641.31;5213887;28;20065;-77
2023/01/04 10:55:50;;;;;;;3.90;1.02;;;;;;;11.99;100.00;101650.88;5207407;28;20021;-76
2023/01/04 10:58:36;;;;;;;1.95;0.85;;;;;;;11.98;100.00;101656.41;5222985;28;20032;-77
2023/01/04 11:01:19;;;;;;;3.35;1.55;;;;;;;11.94;100.00;101628.97;5214390;28;20033;-76
2023/01/04 11:04:31;;;;;;;4.90;1.77;;;;;;;11.82;100.00;101636.47;5207650;28;20116;-77
2023/01/04 11:07:09;;;;;;;4.15;0.90;;;;;;;11.78;100.00;101636.88;5215054;28;20037;-77
2023/01/04 11:09:49;;;;;;;1.42;1.08;;;;;;;11.80;100.00;101629.53;5224436;28;20548;-77
2023/01/04 11:12:22;;;;;;;3.67;0.90;;;;;;;11.80;100.00;101638.44;5206953;28;20124;-77
2023/01/04 11:14:53;;;;;;;4.05;0.95;;;;;;;11.73;100.00;101641.88;5207611;28;20017;-77
2023/01/04 11:17:24;;;;;;;3.58;1.00;;;;;;;11.75;100.00;101642.59;5212969;28;20505;-77
2023/01/04 11:19:54;;;;;;;3.42;0.95;;;;;;;11.73;100.00;101631.13;5219799;28;20100;-76
2023/01/04 11:22:53;;;;;;;4.95;1.27;;;;;;;11.76;100.00;101630.84;5207165;28;20723;-78
2023/01/04 11:25:25;;;;;;;2.83;1.17;;;;;;;11.75;100.00;101615.72;5208127;28;20033;-78
2023/01/04 11:28:00;;;;;;;1.73;0.90;;;;;;;11.72;100.00;101642.88;5206590;28;20040;-78
2023/01/04 11:30:53;;;;;;;;;;;;;;;11.75;100.00;101632.69;5219966;28;20032;-78
2023/01/04 11:33:24;;;;;;;6.50;2.13;;;;;;;11.74;100.00;101628.28;5228152;28;19916;-77
2023/01/04 11:35:57;;;;;;;4.95;1.92;;;;;;;11.72;100.00;101642.88;5222367;28;20032;-77
2023/01/04 11:38:29;;;;;;;3.38;0.90;;;;;;;11.73;100.00;101626.59;5211008;28;20509;-78
2023/01/04 11:41:07;;;;;;;5.85;1.65;;;;;;;11.72;100.00;101637.50;5228299;28;20025;-78
2023/01/04 11:43:38;;;;;;;3.03;0.90;;;;;;;11.72;100.00;101630.28;5223925;28;20025;-79
2023/01/04 11:46:15;;;;;;;3.67;0.88;;;;;;;11.75;100.00;101618.41;5207901;28;20121;-78
2023/01/04 11:48:46;;;;;;;3.55;1.33;;;;;;;11.73;100.00;101631.97;5221484;28;20056;-79
2023/01/04 11:51:25;;;;;;;3.80;0.95;;;;;;;11.72;100.00;101618.69;5217141;28;20017;-79
2023/01/04 11:54:11;;;;;;;6.38;2.63;;;;;;;11.70;100.00;101613.47;5213809;28;20033;-79
2023/01/04 11:57:07;;;;;;;1.65;0.82;;;;;;;11.68;100.00;101602.03;5210440;28;20029;-78
2023/01/04 11:59:37;;;;;;;1.95;1.20;;;;;;;11.71;100.00;101611.63;5206037;28;20025;-78
2023/01/04 12:02:24;;;;;;;6.93;1.95;;;;;;;11.72;100.00;101616.00;5205012;28;20041;-79
2023/01/04 12:04:55;;;;;;;2.85;1.90;;;;;;;11.73;100.00;101617.69;5224721;28;20471;-79
2023/01/04 12:07:30;;;;;;;1.63;1.13;;;;;;;11.72;100.00;101605.25;5227132;28;20148;-79
2023/01/04 12:10:16;;;;;;;5.57;1.33;;;;;;;11.76;100.00;101601.25;5224766;28;20653;-79
2023/01/04 12:12:47;;;;;;;4.95;1.30;;;;;;;11.75;100.00;101596.91;5210129;28;20107;-79
2023/01/04 12:15:26;;;;;;;3.20;1.83;;;;;;;11.71;100.00;101588.28;5213119;28;20108;-79
2023/01/04 12:18:04;;;;;;;2.97;1.25;;;;;;;11.71;100.00;101604.41;5223428;28;20037;-78
2023/01/04 12:20:35;;;;;;;3.17;1.33;;;;;;;11.73;100.00;101601.56;5226599;28;20028;-78
2023/01/04 12:23:05;;;;;;;3.20;1.17;;;;;;;11.77;100.00;101609.16;5208910;28;20022;-78
2023/01/04 12:25:44;;;;;;;9.13;1.50;;;;;;;11.75;100.00;101608.50;5208048;28;20068;-78
2023/01/04 12:28:37;;;;;;;2.42;1.30;;;;;;;11.77;100.00;101619.91;5215934;28;20485;-78
2023/01/04 12:31:20;;;;;;;2.78;1.05;;;;;;;11.77;100.00;101616.38;5220133;28;20511;-78
2023/01/04 12:33:54;;;;;;;3.03;1.02;;;;;;;11.72;100.00;101597.19;5210909;28;20045;-78
2023/01/04 12:36:36;;;;;;;2.28;1.42;;;;;;;11.76;100.00;101598.56;5217605;28;20410;-78
2023/01/04 12:39:13;;;;;;;2.22;1.20;;;;;;;11.80;100.00;101594.59;5221192;28;20060;-78
2023/01/04 12:42:02;;;;;;;5.93;1.58;;;;;;;11.85;100.00;101595.00;5226930;28;20023;-79